createdAt,value
2022-11-05T00:01:05.926Z,11.75
2022-11-05T00:03:48.569Z,11.72
2022-11-05T00:06:34.108Z,11.70
2022-11-05T00:09:16.891Z,11.63
2022-11-05T00:11:59.807Z,11.59
2022-11-05T00:14:42.537Z,11.53
2022-11-05T00:17:13.308Z,11.47
2022-11-05T00:19:43.726Z,11.44
2022-11-05T00:22:29.163Z,11.38
2022-11-05T00:25:11.902Z,11.36
2022-11-05T00:27:43.271Z,11.33
2022-11-05T00:30:17.130Z,11.31
2022-11-05T00:32:48.712Z,11.31
2022-11-05T00:35:20.622Z,11.32
2022-11-05T00:37:56.475Z,11.31
2022-11-05T00:40:26.936Z,11.31
2022-11-05T00:43:10.060Z,11.30
2022-11-05T00:45:41.310Z,11.27
2022-11-05T00:48:24.166Z,11.25
2022-11-05T00:50:54.683Z,11.22
2022-11-05T00:53:27.974Z,11.21
2022-11-05T00:55:58.610Z,11.19
2022-11-05T00:58:30.197Z,11.18
2022-11-05T01:01:01.900Z,11.18
2022-11-05T01:03:34.786Z,11.16
2022-11-05T01:06:10.736Z,11.15
2022-11-05T01:08:45.463Z,11.15
2022-11-05T01:11:33.611Z,11.15
2022-11-05T01:14:05.329Z,11.12
2022-11-05T01:16:36.450Z,11.09
2022-11-05T01:19:08.343Z,11.07
2022-11-05T01:21:39.082Z,11.05
2022-11-05T01:24:13.925Z,11.06
2022-11-05T01:26:44.357Z,11.03
2022-11-05T01:29:15.185Z,11.02
2022-11-05T01:31:45.771Z,10.99
2022-11-05T01:34:16.351Z,10.96
2022-11-05T01:36:46.816Z,10.94
2022-11-05T01:39:20.057Z,10.91
2022-11-05T01:41:50.558Z,10.90
2022-11-05T01:44:50.863Z,10.88
2022-11-05T01:47:30.986Z,10.83
2022-11-05T01:50:06.288Z,10.82
2022-11-05T01:52:38.237Z,10.79
2022-11-05T01:55:13.407Z,10.75
2022-11-05T01:57:44.158Z,10.70
2022-11-05T02:00:16.814Z,10.69
2022-11-05T02:02:47.640Z,10.68
2022-11-05T02:05:18.929Z,10.65
2022-11-05T02:07:51.212Z,10.64
2022-11-05T02:10:25.893Z,10.63
2022-11-05T02:12:56.388Z,10.60
2022-11-05T02:15:58.239Z,10.61
2022-11-05T02:18:42.127Z,10.60
2022-11-05T02:21:39.588Z,10.61
2022-11-05T02:24:45.143Z,10.59
2022-11-05T02:27:23.909Z,10.58
2022-11-05T02:30:34.562Z,10.55
2022-11-05T02:33:14.040Z,10.53
2022-11-05T02:35:58.464Z,10.49
2022-11-05T02:38:41.342Z,10.45
2022-11-05T02:41:21.667Z,10.41
2022-11-05T02:44:06.154Z,10.38
2022-11-05T02:46:48.891Z,10.33
2022-11-05T02:49:27.154Z,10.31
2022-11-05T02:52:01.217Z,10.28
2022-11-05T02:54:39.625Z,10.25
2022-11-05T02:57:10.484Z,10.21
2022-11-05T02:59:41.005Z,10.19
2022-11-05T03:02:14.420Z,10.16
2022-11-05T03:04:45.117Z,10.13
2022-11-05T03:07:40.655Z,10.11
2022-11-05T03:10:42.418Z,10.06
2022-11-05T03:13:19.987Z,10.05
2022-11-05T03:15:59.935Z,10.03
2022-11-05T03:18:42.673Z,10.02
2022-11-05T03:21:20.337Z,10.03
2022-11-05T03:23:56.336Z,10.03
2022-11-05T03:26:32.203Z,10.05
2022-11-05T03:29:09.023Z,10.05
2022-11-05T03:31:42.556Z,10.07
2022-11-05T03:34:17.979Z,10.05
2022-11-05T03:36:51.718Z,10.04
2022-11-05T03:39:26.203Z,10.00
2022-11-05T03:41:58.661Z,9.99
2022-11-05T03:44:34.034Z,9.98
2022-11-05T03:47:08.766Z,9.96
2022-11-05T03:49:46.841Z,9.96
2022-11-05T03:52:21.487Z,9.94
2022-11-05T03:54:52.145Z,9.94
2022-11-05T03:57:28.101Z,9.92
2022-11-05T03:59:58.533Z,9.91
2022-11-05T04:02:31.503Z,9.91
2022-11-05T04:05:04.731Z,9.91
2022-11-05T04:07:47.571Z,9.91
2022-11-05T04:10:30.348Z,9.91
2022-11-05T04:13:13.386Z,9.89
2022-11-05T04:15:56.235Z,9.86
2022-11-05T04:18:26.799Z,9.84
2022-11-05T04:21:12.148Z,9.82
2022-11-05T04:23:55.163Z,9.84
2022-11-05T04:26:25.705Z,9.83
2022-11-05T04:29:08.992Z,9.85
2022-11-05T04:31:39.955Z,9.83
2022-11-05T04:34:11.163Z,9.82
2022-11-05T04:36:45.016Z,9.79
2022-11-05T04:39:15.586Z,9.74
2022-11-05T04:41:46.838Z,9.73
2022-11-05T04:44:18.353Z,9.73
2022-11-05T04:46:49.117Z,9.74
2022-11-05T04:49:19.818Z,9.71
2022-11-05T04:51:53.051Z,9.73
2022-11-05T04:54:23.529Z,9.67
2022-11-05T04:56:54.391Z,9.66
2022-11-05T04:59:24.818Z,9.62
2022-11-05T05:01:55.570Z,9.58
2022-11-05T05:04:26.053Z,9.54
2022-11-05T05:06:59.189Z,9.50
2022-11-05T05:09:29.781Z,9.47
2022-11-05T05:12:00.332Z,9.45
2022-11-05T05:14:30.764Z,9.43
2022-11-05T05:17:01.249Z,9.42
2022-11-05T05:19:51.986Z,9.42
2022-11-05T05:22:22.503Z,9.43
2022-11-05T05:24:53.258Z,9.45
2022-11-05T05:27:23.801Z,9.47
2022-11-05T05:29:54.269Z,9.48
2022-11-05T05:32:24.777Z,9.52
2022-11-05T05:34:55.784Z,9.53
2022-11-05T05:37:28.962Z,9.59
2022-11-05T05:39:59.489Z,9.63
2022-11-05T05:42:30.036Z,9.68
2022-11-05T05:45:00.550Z,9.76
2022-11-05T05:47:31.087Z,9.82
2022-11-05T05:50:01.569Z,9.90
2022-11-05T05:52:36.315Z,9.98
2022-11-05T05:55:07.425Z,10.06
2022-11-05T05:57:38.188Z,10.18
2022-11-05T06:00:09.722Z,10.31
2022-11-05T06:02:43.610Z,10.43
2022-11-05T06:05:14.167Z,10.55
2022-11-05T06:07:47.315Z,10.68
2022-11-05T06:10:17.866Z,10.80
2022-11-05T06:12:48.413Z,10.95
2022-11-05T06:15:19.026Z,11.11
2022-11-05T06:17:49.980Z,11.25
2022-11-05T06:20:20.893Z,11.42
2022-11-05T06:23:00.682Z,11.57
2022-11-05T06:25:31.169Z,11.69
2022-11-05T06:28:02.437Z,11.85
2022-11-05T06:30:33.123Z,11.98
2022-11-05T06:33:06.580Z,12.12
2022-11-05T06:35:37.155Z,12.24
2022-11-05T06:38:10.619Z,12.38
2022-11-05T06:40:41.107Z,12.52
2022-11-05T06:43:11.830Z,12.66
2022-11-05T06:45:42.631Z,12.83
2022-11-05T06:48:13.165Z,13.00
2022-11-05T06:50:47.252Z,13.18
2022-11-05T06:53:20.336Z,13.41
2022-11-05T06:55:50.869Z,13.64
2022-11-05T06:58:21.722Z,13.91
2022-11-05T07:00:52.263Z,14.23
2022-11-05T07:03:22.817Z,14.54
2022-11-05T07:05:54.027Z,14.91
2022-11-05T07:08:27.139Z,15.25
2022-11-05T07:10:57.586Z,15.56
2022-11-05T07:13:28.187Z,15.88
2022-11-05T07:15:58.796Z,16.17
2022-11-05T07:18:29.370Z,16.42
2022-11-05T07:20:59.854Z,16.67
2022-11-05T07:23:33.124Z,16.92
2022-11-05T07:26:03.576Z,17.16
2022-11-05T07:28:34.115Z,17.45
2022-11-05T07:31:04.659Z,17.78
2022-11-05T07:33:36.647Z,18.06
2022-11-05T07:36:08.632Z,18.33
2022-11-05T07:38:41.859Z,18.61
2022-11-05T07:41:12.389Z,18.85
2022-11-05T07:43:42.874Z,19.07
2022-11-05T07:46:14.036Z,19.28
2022-11-05T07:48:45.209Z,19.46
2022-11-05T07:51:15.956Z,19.64
2022-11-05T07:53:49.133Z,19.79
2022-11-05T07:56:19.724Z,19.89
2022-11-05T07:58:50.562Z,19.98
2022-11-05T08:01:21.216Z,20.07
2022-11-05T08:03:51.932Z,20.14
2022-11-05T08:06:22.766Z,20.19
2022-11-05T08:08:56.093Z,20.23
2022-11-05T08:11:26.618Z,20.27
2022-11-05T08:13:57.218Z,20.29
2022-11-05T08:16:27.786Z,20.30
2022-11-05T08:18:58.380Z,20.31
2022-11-05T08:21:28.900Z,20.31
2022-11-05T08:24:02.093Z,20.33
2022-11-05T08:26:32.586Z,20.33
2022-11-05T08:29:03.203Z,20.34
2022-11-05T08:31:37.279Z,20.35
2022-11-05T08:34:08.016Z,20.36
2022-11-05T08:36:42.364Z,20.38
2022-11-05T08:39:18.756Z,20.39
2022-11-05T08:41:50.395Z,20.41
2022-11-05T08:44:21.012Z,20.43
2022-11-05T08:46:51.612Z,20.45
2022-11-05T08:49:22.126Z,20.48
2022-11-05T08:51:52.613Z,20.49
2022-11-05T08:54:25.855Z,20.52
2022-11-05T08:56:56.485Z,20.54
2022-11-05T08:59:27.382Z,20.56
2022-11-05T09:01:57.987Z,20.58
2022-11-05T09:04:28.588Z,20.59
2022-11-05T09:06:59.068Z,20.61
2022-11-05T09:09:32.964Z,20.61
2022-11-05T09:12:12.182Z,20.63
2022-11-05T09:14:43.567Z,20.66
2022-11-05T09:17:20.094Z,20.66
2022-11-05T09:19:52.202Z,20.68
2022-11-05T09:22:22.709Z,20.70
2022-11-05T09:24:55.874Z,20.71
2022-11-05T09:27:26.704Z,20.75
2022-11-05T09:29:57.206Z,20.76
2022-11-05T09:32:27.682Z,20.79
2022-11-05T09:35:00.458Z,20.80
2022-11-05T09:37:32.045Z,20.82
2022-11-05T09:40:05.318Z,20.84
2022-11-05T09:42:40.921Z,20.85
2022-11-05T09:45:17.997Z,20.86
2022-11-05T09:47:52.528Z,20.88
2022-11-05T09:50:29.234Z,20.89
2022-11-05T09:52:59.933Z,20.90
2022-11-05T09:55:36.590Z,20.94
2022-11-05T09:58:12.665Z,20.96
2022-11-05T10:00:43.865Z,21.02
2022-11-05T10:03:18.339Z,21.08
2022-11-05T10:05:50.063Z,21.12
2022-11-05T10:08:25.660Z,21.19
2022-11-05T10:11:02.495Z,21.25
2022-11-05T10:13:39.552Z,21.33
2022-11-05T10:16:24.233Z,21.42
2022-11-05T10:18:58.151Z,21.49
2022-11-05T10:21:59.380Z,21.58
2022-11-05T10:56:05.878Z,22.98
2022-11-05T10:58:42.295Z,23.07
2022-11-05T11:01:16.033Z,23.15
2022-11-05T11:03:50.078Z,23.20
2022-11-05T11:06:26.527Z,23.21
2022-11-05T11:09:00.179Z,23.20
2022-11-05T11:11:39.270Z,23.20
2022-11-05T11:14:22.713Z,23.19
2022-11-05T11:16:57.705Z,23.15
2022-11-05T11:19:29.827Z,23.15
2022-11-05T11:22:17.257Z,23.07
2022-11-05T11:24:50.220Z,23.00
2022-11-05T11:27:27.043Z,22.91
2022-11-05T11:30:03.309Z,22.83
2022-11-05T11:32:39.377Z,22.77
2022-11-05T11:35:21.678Z,22.79
2022-11-05T11:37:55.208Z,22.77
2022-11-05T11:40:28.248Z,22.77
2022-11-05T11:43:03.873Z,22.74
2022-11-05T11:45:37.202Z,22.70
2022-11-05T11:48:09.953Z,22.69
2022-11-05T11:50:44.102Z,22.69
2022-11-05T11:53:29.558Z,22.69
2022-11-05T11:56:08.563Z,22.65
2022-11-05T11:58:45.743Z,22.60
2022-11-05T12:01:53.623Z,22.56
2022-11-05T12:04:53.902Z,22.52
2022-11-05T12:07:40.977Z,22.48
2022-11-05T12:10:28.161Z,22.42
2022-11-05T12:13:30.196Z,22.34
2022-11-05T12:16:11.152Z,22.25
2022-11-05T12:18:50.013Z,22.21
2022-11-05T12:21:51.285Z,22.24
2022-11-05T12:24:32.770Z,22.25
2022-11-05T12:27:14.099Z,22.24
2022-11-05T12:29:57.117Z,22.17
2022-11-05T12:32:46.604Z,22.05
2022-11-05T12:35:30.186Z,21.94
2022-11-05T12:38:12.289Z,21.84
2022-11-05T12:41:18.561Z,21.71
2022-11-05T12:44:03.726Z,21.60
2022-11-05T12:46:41.442Z,21.50
2022-11-05T12:49:32.477Z,21.41
2022-11-05T12:52:19.355Z,21.28
2022-11-05T12:55:03.327Z,21.20
2022-11-05T12:57:36.210Z,21.10
2022-11-05T13:00:11.016Z,21.04
2022-11-05T13:02:47.761Z,20.96
2022-11-05T13:05:25.673Z,20.93
2022-11-05T13:08:02.322Z,20.88
2022-11-05T13:10:37.471Z,20.82
2022-11-05T13:13:16.455Z,20.75
2022-11-05T13:15:53.813Z,20.69
2022-11-05T13:18:33.091Z,20.62
2022-11-05T13:21:10.806Z,20.55
2022-11-05T13:23:45.410Z,20.47
2022-11-05T13:26:20.905Z,20.41
2022-11-05T13:28:57.152Z,20.36
2022-11-05T13:31:35.054Z,20.31
2022-11-05T13:34:12.343Z,20.24
2022-11-05T13:37:06.009Z,20.18
2022-11-05T13:39:39.757Z,20.11
2022-11-05T13:42:37.459Z,20.06
2022-11-05T13:45:28.986Z,20.02
2022-11-05T13:48:20.502Z,20.04
2022-11-05T13:51:12.512Z,20.43
2022-11-05T13:54:07.778Z,20.93
2022-11-05T13:56:55.434Z,21.33
2022-11-05T13:59:54.094Z,21.34
2022-11-05T14:02:27.941Z,21.24
2022-11-05T14:05:02.213Z,21.21
2022-11-05T14:07:37.504Z,21.21
2022-11-05T14:10:20.967Z,21.23
2022-11-05T14:12:53.784Z,21.12
2022-11-05T14:15:28.353Z,21.13
2022-11-05T14:18:02.275Z,21.15
2022-11-05T14:20:46.795Z,21.13
2022-11-05T14:23:43.382Z,20.98
2022-11-05T14:26:22.205Z,20.92
2022-11-05T14:29:08.832Z,20.80
2022-11-05T14:32:13.574Z,20.62
2022-11-05T14:34:48.463Z,20.45
2022-11-05T14:37:27.630Z,20.26
2022-11-05T14:39:58.823Z,20.14
2022-11-05T14:42:33.514Z,19.98
2022-11-05T14:45:23.847Z,19.86
2022-11-05T14:47:57.335Z,19.74
2022-11-05T14:50:36.586Z,19.63
2022-11-05T14:53:29.912Z,19.52
2022-11-05T14:56:04.017Z,19.44
2022-11-05T14:58:38.888Z,19.33
2022-11-05T15:01:10.880Z,19.23
2022-11-05T15:04:08.723Z,19.11
2022-11-05T15:06:39.910Z,19.00
2022-11-05T15:09:32.711Z,18.90
2022-11-05T15:12:11.634Z,18.81
2022-11-05T15:15:00.269Z,18.71
2022-11-05T15:17:33.427Z,18.64
2022-11-05T15:20:12.240Z,18.55
2022-11-05T15:22:46.097Z,18.49
2022-11-05T15:25:20.738Z,18.42
2022-11-05T15:28:02.757Z,18.38
2022-11-05T15:30:36.818Z,18.32
2022-11-05T15:33:21.205Z,18.25
2022-11-05T15:35:51.638Z,18.21
2022-11-05T15:38:30.928Z,18.15
2022-11-05T15:41:03.082Z,18.11
2022-11-05T15:43:33.873Z,18.06
2022-11-05T15:46:17.466Z,18.02
2022-11-05T15:48:50.121Z,17.98
2022-11-05T15:51:20.803Z,17.94
2022-11-05T15:54:29.717Z,17.90
2022-11-05T15:56:54.465Z,17.85
2022-11-05T15:59:26.698Z,17.82
2022-11-05T16:02:04.109Z,17.80
2022-11-05T16:04:37.325Z,17.76
2022-11-05T16:07:13.826Z,17.73
2022-11-05T16:09:46.677Z,17.69
2022-11-05T16:12:26.957Z,17.64
2022-11-05T16:15:06.264Z,17.60
2022-11-05T16:17:50.825Z,17.58
2022-11-05T16:20:24.290Z,17.55
2022-11-05T16:22:56.917Z,17.53
2022-11-05T16:25:33.095Z,17.51
2022-11-05T16:28:04.359Z,17.50
2022-11-05T16:30:34.937Z,17.48
2022-11-05T16:33:11.576Z,17.48
2022-11-05T16:35:50.612Z,17.47
2022-11-05T16:38:25.230Z,17.45
2022-11-05T16:40:55.766Z,17.42
2022-11-05T16:43:28.275Z,17.41
2022-11-05T16:46:01.488Z,17.37
2022-11-05T16:48:34.604Z,17.36
2022-11-05T16:51:05.169Z,17.34
2022-11-05T16:53:35.558Z,17.32
2022-11-05T16:56:06.468Z,17.30
2022-11-05T16:58:37.027Z,17.30
2022-11-05T17:01:10.778Z,17.27
2022-11-05T17:03:43.922Z,17.22
2022-11-05T17:06:15.117Z,17.21
2022-11-05T17:08:46.774Z,17.17
2022-11-05T17:11:18.320Z,17.12
2022-11-05T17:13:49.505Z,17.07
2022-11-05T17:16:20.862Z,17.02
2022-11-05T17:18:53.950Z,17.01
2022-11-05T17:21:24.390Z,16.98
2022-11-05T17:23:54.849Z,16.95
2022-11-05T17:26:25.811Z,16.91
2022-11-05T17:28:56.288Z,16.85
2022-11-05T17:31:27.529Z,16.79
2022-11-05T17:34:02.088Z,16.72
2022-11-05T17:36:32.585Z,16.67
2022-11-05T17:39:03.034Z,16.63
2022-11-05T17:41:33.731Z,16.60
2022-11-05T17:44:04.175Z,16.59
2022-11-05T17:46:34.893Z,16.58
2022-11-05T17:49:07.994Z,16.58
2022-11-05T17:51:38.918Z,16.58
2022-11-05T17:54:09.354Z,16.56
2022-11-05T17:56:44.886Z,16.56
2022-11-05T17:59:15.444Z,16.56
2022-11-05T18:01:46.241Z,16.56
2022-11-05T18:04:19.562Z,16.56
2022-11-05T18:06:50.685Z,16.56
2022-11-05T18:09:21.387Z,16.56
2022-11-05T18:11:51.977Z,16.56
2022-11-05T18:14:24.269Z,16.55
2022-11-05T18:16:55.581Z,16.53
2022-11-05T18:19:29.243Z,16.52
2022-11-05T18:22:00.426Z,16.14
2022-11-05T18:24:30.965Z,15.43
2022-11-05T18:27:01.785Z,15.00
2022-11-05T18:29:32.621Z,14.95
2022-11-05T18:32:03.292Z,14.73
2022-11-05T18:34:36.389Z,14.75
2022-11-05T18:37:07.051Z,14.63
2022-11-05T18:39:37.523Z,14.36
2022-11-05T18:42:08.396Z,14.37
2022-11-05T18:44:39.646Z,14.15
2022-11-05T18:47:10.477Z,14.07
2022-11-05T18:49:43.606Z,14.06
2022-11-05T18:52:14.194Z,13.83
2022-11-05T18:54:44.610Z,13.78
2022-11-05T18:57:15.452Z,13.75
2022-11-05T18:59:46.918Z,13.56
2022-11-05T19:02:18.342Z,13.57
2022-11-05T19:05:22.168Z,13.46
2022-11-05T19:07:42.903Z,13.47
2022-11-05T19:10:13.398Z,13.51
2022-11-05T19:12:44.013Z,13.41
2022-11-05T19:15:14.712Z,13.47
2022-11-05T19:17:45.262Z,13.50
2022-11-05T19:20:18.463Z,13.53
2022-11-05T19:22:49.101Z,13.65
2022-11-05T19:25:19.622Z,13.69
2022-11-05T19:27:50.204Z,13.76
2022-11-05T19:30:20.939Z,13.91
2022-11-05T19:32:51.487Z,13.99
2022-11-05T19:35:24.742Z,14.15
2022-11-05T19:37:55.354Z,14.19
2022-11-05T19:40:25.842Z,14.28
2022-11-05T19:42:56.474Z,14.38
2022-11-05T19:48:19.752Z,14.41
2022-11-05T19:50:53.192Z,14.42
2022-11-05T19:53:23.675Z,14.45
2022-11-05T19:55:54.095Z,14.52
2022-11-05T19:58:24.835Z,14.43
2022-11-05T20:00:58.323Z,14.53
2022-11-05T20:03:29.077Z,14.51
2022-11-05T20:06:05.623Z,14.59
2022-11-05T20:08:47.807Z,14.61
2022-11-05T20:11:27.019Z,14.72
2022-11-05T20:13:57.611Z,14.64
2022-11-05T20:16:32.407Z,14.54
2022-11-05T20:19:02.912Z,14.59
2022-11-05T20:21:36.042Z,14.44
2022-11-05T20:24:07.287Z,14.44
2022-11-05T20:26:38.578Z,14.48
2022-11-05T20:29:09.522Z,14.45
2022-11-05T20:31:39.937Z,14.51
2022-11-05T20:34:10.687Z,14.36
2022-11-05T20:36:44.323Z,14.44
2022-11-05T20:39:15.018Z,14.41
2022-11-05T20:41:45.474Z,14.38
2022-11-05T20:44:16.133Z,14.43
2022-11-05T20:46:46.738Z,14.45
2022-11-05T20:49:21.248Z,14.48
2022-11-05T20:51:57.596Z,14.36
2022-11-05T20:54:28.302Z,14.39
2022-11-05T20:56:58.833Z,14.35
2022-11-05T20:59:29.634Z,14.24
2022-11-05T21:02:00.298Z,14.33
2022-11-05T21:04:31.026Z,14.31
2022-11-05T21:07:04.098Z,14.37
2022-11-05T21:09:34.779Z,14.48
2022-11-05T21:12:14.347Z,14.60
2022-11-05T21:14:46.109Z,14.70
2022-11-05T21:17:16.915Z,14.77
2022-11-05T21:19:47.512Z,14.86
2022-11-05T21:22:20.599Z,14.92
2022-11-05T21:24:51.108Z,14.95
2022-11-05T21:27:21.659Z,15.03
2022-11-05T21:29:52.169Z,15.08
2022-11-05T21:32:22.624Z,15.11
2022-11-05T21:34:53.267Z,15.14
2022-11-05T21:37:26.708Z,15.17
2022-11-05T21:39:57.263Z,15.19
2022-11-05T21:42:27.817Z,15.21
2022-11-05T21:45:00.557Z,15.21
2022-11-05T21:47:31.890Z,15.23
2022-11-05T21:50:02.474Z,15.21
2022-11-05T21:52:48.482Z,15.26
2022-11-05T21:55:31.281Z,15.27
2022-11-05T21:58:24.567Z,15.29
2022-11-05T22:00:55.066Z,15.32
2022-11-05T22:03:25.461Z,15.34
2022-11-05T22:05:56.589Z,15.36
2022-11-05T22:08:29.698Z,15.39
2022-11-05T22:11:00.362Z,15.42
2022-11-05T22:13:30.907Z,15.45
2022-11-05T22:16:01.569Z,15.49
2022-11-05T22:18:32.378Z,15.51
2022-11-05T22:21:02.929Z,15.53
2022-11-05T22:23:35.969Z,15.56
2022-11-05T22:26:06.552Z,15.59
2022-11-05T22:28:36.993Z,15.59
2022-11-05T22:31:07.531Z,15.61
2022-11-05T22:33:38.036Z,15.62
2022-11-05T22:36:09.343Z,15.64
2022-11-05T22:38:43.111Z,15.63
2022-11-05T22:41:15.789Z,15.64
2022-11-05T22:43:47.060Z,15.65
2022-11-05T22:46:19.190Z,15.62
2022-11-05T22:48:50.323Z,15.58
2022-11-05T22:51:24.161Z,15.51
2022-11-05T22:53:57.736Z,15.48
2022-11-05T22:56:30.419Z,15.46
2022-11-05T22:59:01.241Z,15.45
2022-11-05T23:01:32.837Z,15.40
2022-11-05T23:04:03.633Z,15.36
2022-11-05T23:06:47.854Z,15.32
2022-11-05T23:09:34.953Z,15.27
2022-11-05T23:12:07.642Z,15.22
2022-11-05T23:14:38.442Z,15.20
2022-11-05T23:17:21.340Z,15.18
2022-11-05T23:20:04.173Z,15.21
2022-11-05T23:22:47.433Z,15.23
2022-11-05T23:25:23.694Z,15.26
2022-11-05T23:27:56.436Z,15.28
2022-11-05T23:30:30.630Z,15.29
2022-11-05T23:32:59.786Z,15.36
2022-11-05T23:35:43.287Z,15.41
2022-11-05T23:38:26.612Z,15.47
2022-11-05T23:41:15.846Z,15.56
2022-11-05T23:43:59.198Z,15.63
2022-11-05T23:46:42.459Z,15.75
2022-11-05T23:49:15.697Z,15.77
2022-11-05T23:51:47.217Z,15.87
2022-11-05T23:54:18.902Z,15.90
2022-11-05T23:56:52.118Z,15.91
2022-11-05T23:59:22.699Z,15.93
